createdAt,value
2023-03-18T00:01:23.756Z,7.28
2023-03-18T00:03:51.692Z,3.65
2023-03-18T00:06:22.066Z,4.47
2023-03-18T00:08:50.855Z,3.58
2023-03-18T00:11:20.131Z,7.20
2023-03-18T00:13:48.115Z,4.53
2023-03-18T00:16:16.692Z,3.08
2023-03-18T00:18:44.032Z,3.67
2023-03-18T00:21:11.306Z,6.95
2023-03-18T00:23:38.833Z,7.97
2023-03-18T00:26:06.867Z,3.58
2023-03-18T00:28:33.905Z,4.93
2023-03-18T00:31:09.208Z,3.95
2023-03-18T00:33:38.217Z,6.40
2023-03-18T00:36:07.391Z,7.63
2023-03-18T00:38:35.714Z,4.70
2023-03-18T00:41:11.801Z,5.18
2023-03-18T00:43:55.157Z,5.47
2023-03-18T00:46:25.736Z,7.38
2023-03-18T00:48:54.724Z,3.45
2023-03-18T00:51:24.102Z,8.75
2023-03-18T00:53:54.169Z,4.25
2023-03-18T00:56:24.117Z,3.20
2023-03-18T00:58:52.432Z,5.10
2023-03-18T01:01:20.070Z,3.35
2023-03-18T01:03:49.657Z,5.55
2023-03-18T01:06:21.121Z,8.27
2023-03-18T01:08:48.558Z,4.57
2023-03-18T01:11:16.098Z,6.45
2023-03-18T01:13:44.070Z,8.88
2023-03-18T01:16:11.952Z,6.22
2023-03-18T01:18:40.210Z,8.10
2023-03-18T01:21:08.848Z,5.50
2023-03-18T01:23:39.915Z,5.47
2023-03-18T01:26:07.746Z,5.55
2023-03-18T01:28:36.000Z,5.63
2023-03-18T01:31:04.748Z,5.47
2023-03-18T01:33:31.893Z,6.05
2023-03-18T01:36:00.681Z,6.38
2023-03-18T01:38:30.449Z,5.40
2023-03-18T01:41:04.064Z,4.60
2023-03-18T01:43:34.626Z,7.13
2023-03-18T01:46:41.341Z,9.18
2023-03-18T01:49:36.959Z,4.32
2023-03-18T01:54:42.393Z,6.90
2023-03-18T01:57:09.593Z,6.15
2023-03-18T01:59:40.333Z,6.03
2023-03-18T02:02:10.629Z,6.93
2023-03-18T02:04:42.743Z,5.05
2023-03-18T02:07:26.718Z,6.43
2023-03-18T02:09:59.879Z,5.28
2023-03-18T02:12:33.511Z,8.52
2023-03-18T02:15:04.140Z,5.38
2023-03-18T02:17:36.028Z,4.72
2023-03-18T02:20:26.102Z,7.90
2023-03-18T02:22:58.943Z,4.88
2023-03-18T02:25:48.039Z,6.85
2023-03-18T02:28:21.693Z,6.82
2023-03-18T02:30:54.312Z,8.88
2023-03-18T02:33:26.838Z,5.32
2023-03-18T02:35:58.682Z,6.15
2023-03-18T02:38:26.599Z,5.35
2023-03-18T02:40:53.838Z,6.70
2023-03-18T02:43:32.499Z,5.55
2023-03-18T02:46:09.601Z,7.78
2023-03-18T02:48:40.652Z,4.55
2023-03-18T02:51:09.185Z,6.45
2023-03-18T02:53:36.977Z,6.35
2023-03-18T02:56:04.565Z,6.38
2023-03-18T02:58:32.469Z,7.53
2023-03-18T03:01:01.440Z,6.40
2023-03-18T03:03:29.348Z,5.65
2023-03-18T03:05:56.621Z,9.00
2023-03-18T03:08:25.197Z,5.85
2023-03-18T03:10:52.644Z,6.80
2023-03-18T03:13:22.329Z,5.70
2023-03-18T03:15:50.868Z,5.63
2023-03-18T03:18:17.920Z,12.30
2023-03-18T03:20:45.714Z,4.30
2023-03-18T03:23:15.775Z,5.75
2023-03-18T03:25:44.981Z,6.38
2023-03-18T03:28:14.194Z,8.23
2023-03-18T03:30:42.374Z,7.70
2023-03-18T03:33:10.281Z,6.00
2023-03-18T03:35:38.847Z,6.68
2023-03-18T03:38:06.598Z,3.47
2023-03-18T03:40:34.296Z,4.97
2023-03-18T03:43:01.553Z,5.63
2023-03-18T03:45:29.397Z,7.35
2023-03-18T03:47:56.541Z,8.60
2023-03-18T03:50:23.902Z,7.53
2023-03-18T03:52:50.946Z,8.02
2023-03-18T03:55:20.349Z,10.75
2023-03-18T03:57:48.448Z,5.57
2023-03-18T04:00:20.634Z,10.93
2023-03-18T04:02:51.437Z,5.45
2023-03-18T04:05:23.714Z,4.75
2023-03-18T04:07:52.567Z,9.63
2023-03-18T04:10:28.462Z,6.50
2023-03-18T04:12:55.553Z,6.13
2023-03-18T04:15:23.151Z,8.25
2023-03-18T04:17:53.363Z,5.93
2023-03-18T04:20:21.030Z,5.80
2023-03-18T04:22:49.378Z,6.00
2023-03-18T04:25:19.163Z,7.28
2023-03-18T04:27:48.846Z,6.25
2023-03-18T04:30:17.964Z,3.47
2023-03-18T04:32:56.890Z,11.25
2023-03-18T04:35:23.908Z,7.15
2023-03-18T04:37:51.433Z,4.05
2023-03-18T04:40:20.089Z,5.35
2023-03-18T04:42:48.324Z,5.65
2023-03-18T04:45:17.898Z,11.32
2023-03-18T04:47:45.632Z,8.57
2023-03-18T04:50:14.683Z,8.23
2023-03-18T04:52:43.784Z,6.90
2023-03-18T04:55:16.603Z,6.38
2023-03-18T04:57:44.557Z,7.43
2023-03-18T05:00:17.627Z,7.20
2023-03-18T05:02:47.760Z,7.25
2023-03-18T05:05:15.026Z,8.77
2023-03-18T05:07:47.261Z,4.03
2023-03-18T05:10:16.548Z,5.68
2023-03-18T05:12:43.701Z,5.72
2023-03-18T05:15:14.455Z,7.80
2023-03-18T05:17:47.793Z,7.03
2023-03-18T05:20:14.967Z,6.78
2023-03-18T05:22:44.991Z,7.05
2023-03-18T05:25:21.796Z,11.43
2023-03-18T05:27:49.712Z,6.90
2023-03-18T05:30:26.820Z,5.35
2023-03-18T05:32:55.184Z,9.13
2023-03-18T05:35:36.451Z,3.75
2023-03-18T05:38:04.800Z,7.30
2023-03-18T05:40:31.862Z,14.30
2023-03-18T05:43:05.607Z,4.97
2023-03-18T05:45:40.506Z,5.13
2023-03-18T05:48:10.765Z,7.35
2023-03-18T05:50:48.595Z,6.85
2023-03-18T05:53:19.668Z,6.72
2023-03-18T05:55:50.032Z,4.50
2023-03-18T05:58:18.880Z,4.60
2023-03-18T06:00:48.475Z,6.70
2023-03-18T06:03:15.540Z,5.00
2023-03-18T06:05:42.648Z,6.45
2023-03-18T06:08:09.837Z,9.60
2023-03-18T06:10:37.970Z,13.60
2023-03-18T06:13:06.033Z,9.18
2023-03-18T06:15:33.509Z,6.57
2023-03-18T06:18:00.795Z,5.93
2023-03-18T06:20:28.278Z,8.02
2023-03-18T06:22:55.275Z,4.40
2023-03-18T06:25:26.544Z,4.35
2023-03-18T06:27:53.895Z,4.60
2023-03-18T06:30:24.870Z,4.50
2023-03-18T06:32:53.504Z,10.45
2023-03-18T06:35:26.729Z,6.45
2023-03-18T06:37:54.808Z,7.40
2023-03-18T06:40:22.424Z,6.65
2023-03-18T06:42:51.082Z,4.57
2023-03-18T06:45:28.452Z,4.72
2023-03-18T06:48:04.482Z,3.97
2023-03-18T06:50:33.991Z,5.65
2023-03-18T06:53:01.335Z,5.15
2023-03-18T06:55:31.254Z,5.70
2023-03-18T06:57:59.224Z,4.85
2023-03-18T07:00:34.332Z,6.55
2023-03-18T07:03:01.920Z,6.35
2023-03-18T07:05:29.650Z,5.47
2023-03-18T07:07:57.014Z,5.55
2023-03-18T07:10:27.573Z,6.95
2023-03-18T07:13:00.405Z,7.63
2023-03-18T07:15:28.953Z,6.20
2023-03-18T07:18:00.530Z,9.55
2023-03-18T07:20:28.850Z,12.07
2023-03-18T07:22:55.959Z,14.13
2023-03-18T07:25:23.214Z,6.80
2023-03-18T07:27:50.805Z,8.05
2023-03-18T07:30:19.001Z,7.30
2023-03-18T07:32:46.294Z,5.65
2023-03-18T07:35:16.192Z,8.88
2023-03-18T07:37:43.598Z,7.22
2023-03-18T07:40:11.917Z,8.73
2023-03-18T07:42:38.929Z,17.75
2023-03-18T07:45:07.965Z,8.80
2023-03-18T07:47:35.247Z,6.82
2023-03-18T07:50:02.744Z,8.55
2023-03-18T07:52:29.912Z,5.65
2023-03-18T07:54:56.996Z,7.95
2023-03-18T07:57:24.254Z,7.97
2023-03-18T07:59:52.031Z,7.93
2023-03-18T08:02:20.554Z,8.13
2023-03-18T08:04:48.068Z,11.43
2023-03-18T08:07:15.173Z,8.45
2023-03-18T08:09:42.189Z,10.60
2023-03-18T08:12:09.581Z,14.68
2023-03-18T08:14:36.938Z,9.65
2023-03-18T08:17:04.202Z,12.27
2023-03-18T08:19:31.240Z,13.73
2023-03-18T08:21:58.364Z,10.13
2023-03-18T08:24:25.527Z,8.23
2023-03-18T08:26:52.680Z,12.40
2023-03-18T08:29:19.728Z,10.73
2023-03-18T08:31:46.867Z,11.23
2023-03-18T08:34:14.478Z,17.58
2023-03-18T08:36:42.964Z,11.27
2023-03-18T08:39:10.194Z,10.25
2023-03-18T08:41:37.584Z,9.00
2023-03-18T08:44:06.715Z,10.32
2023-03-18T08:46:33.814Z,9.93
2023-03-18T08:49:00.779Z,10.93
2023-03-18T08:51:29.205Z,7.20
2023-03-18T08:53:56.615Z,9.55
2023-03-18T08:56:24.117Z,7.63
2023-03-18T08:58:51.238Z,7.40
2023-03-18T09:01:22.096Z,8.45
2023-03-18T09:03:50.806Z,9.23
2023-03-18T09:06:18.625Z,7.55
2023-03-18T09:08:45.649Z,9.52
2023-03-18T09:11:13.925Z,10.57
2023-03-18T09:13:41.218Z,15.68
2023-03-18T09:16:08.513Z,10.85
2023-03-18T09:18:35.588Z,8.38
2023-03-18T09:21:03.464Z,10.40
2023-03-18T09:23:31.881Z,10.68
2023-03-18T09:26:00.616Z,9.52
2023-03-18T09:28:27.954Z,10.52
2023-03-18T09:30:55.883Z,8.93
2023-03-18T09:33:24.810Z,12.18
2023-03-18T09:35:51.830Z,10.68
2023-03-18T09:38:20.845Z,10.88
2023-03-18T09:41:11.052Z,9.32
2023-03-18T09:44:03.252Z,11.95
2023-03-18T09:46:58.192Z,10.00
2023-03-18T09:49:48.538Z,9.55
2023-03-18T09:52:24.339Z,11.02
2023-03-18T09:55:20.025Z,10.05
2023-03-18T09:57:50.112Z,9.27
2023-03-18T10:00:26.168Z,9.70
2023-03-18T10:03:00.252Z,9.45
2023-03-18T10:05:34.873Z,9.50
2023-03-18T10:08:17.070Z,21.83
2023-03-18T10:10:47.718Z,8.18
2023-03-18T10:13:52.568Z,8.45
2023-03-18T10:16:28.241Z,9.32
2023-03-18T10:18:55.765Z,11.30
2023-03-18T10:21:35.329Z,10.73
2023-03-18T10:24:30.769Z,11.23
2023-03-18T10:27:10.699Z,11.70
2023-03-18T10:30:18.469Z,8.80
2023-03-18T10:33:19.191Z,7.43
2023-03-18T10:36:03.251Z,8.35
2023-03-18T10:38:45.264Z,9.23
2023-03-18T10:41:32.623Z,10.93
2023-03-18T10:44:25.612Z,7.50
2023-03-18T10:47:00.905Z,8.60
2023-03-18T10:52:10.293Z,9.18
2023-03-18T10:54:41.723Z,7.55
2023-03-18T10:57:16.058Z,10.93
2023-03-18T10:59:47.719Z,9.07
2023-03-18T11:02:33.264Z,6.85
2023-03-18T11:05:05.174Z,6.97
2023-03-18T11:07:32.360Z,7.00
2023-03-18T11:10:13.416Z,8.40
2023-03-18T11:12:40.498Z,8.30
2023-03-18T11:15:13.030Z,8.35
2023-03-18T11:17:40.960Z,7.40
2023-03-18T11:20:25.361Z,11.07
2023-03-18T11:22:55.800Z,8.55
2023-03-18T11:25:26.764Z,7.88
2023-03-18T11:28:04.491Z,11.15
2023-03-18T11:30:45.560Z,7.78
2023-03-18T11:33:12.712Z,9.15
2023-03-18T11:35:45.470Z,7.88
2023-03-18T11:38:18.935Z,8.65
2023-03-18T11:40:46.696Z,7.47
2023-03-18T11:43:22.362Z,9.45
2023-03-18T11:45:52.355Z,6.88
2023-03-18T11:48:38.347Z,7.40
2023-03-18T11:51:42.446Z,6.75
2023-03-18T11:54:26.625Z,7.85
2023-03-18T11:57:01.780Z,5.78
2023-03-18T11:59:52.673Z,5.38
2023-03-18T12:02:42.765Z,7.85
2023-03-18T12:05:41.015Z,11.48
2023-03-18T12:08:09.911Z,9.55
2023-03-18T12:10:41.214Z,8.48
2023-03-18T12:13:51.337Z,7.97
2023-03-18T12:16:27.940Z,10.38
2023-03-18T12:19:30.063Z,8.55
2023-03-18T12:22:24.088Z,7.07
2023-03-18T12:25:09.327Z,7.63
2023-03-18T12:28:06.316Z,9.45
2023-03-18T12:30:42.680Z,8.68
2023-03-18T12:33:34.153Z,6.78
2023-03-18T12:36:04.107Z,8.57
2023-03-18T12:38:53.450Z,7.32
2023-03-18T12:41:29.660Z,8.73
2023-03-18T12:44:15.148Z,8.68
2023-03-18T12:46:53.990Z,14.38
2023-03-18T12:49:53.512Z,7.28
2023-03-18T12:52:40.315Z,7.68
2023-03-18T12:55:16.358Z,11.95
2023-03-18T12:58:20.405Z,8.55
2023-03-18T13:01:18.415Z,11.00
2023-03-18T13:04:07.721Z,11.55
2023-03-18T13:06:51.547Z,9.50
2023-03-18T13:09:51.734Z,11.93
2023-03-18T13:12:28.984Z,14.35
2023-03-18T13:15:07.204Z,11.25
2023-03-18T13:17:41.267Z,14.70
2023-03-18T13:20:14.645Z,11.82
2023-03-18T13:22:44.234Z,16.98
2023-03-18T13:25:14.045Z,15.57
2023-03-18T13:28:05.735Z,12.73
2023-03-18T13:30:51.435Z,15.02
2023-03-18T13:33:43.031Z,16.27
2023-03-18T13:36:10.584Z,15.50
2023-03-18T13:39:15.258Z,15.98
2023-03-18T13:41:52.364Z,15.57
2023-03-18T13:44:25.565Z,18.58
2023-03-18T13:47:03.659Z,21.10
2023-03-18T13:49:32.869Z,17.80
2023-03-18T13:52:03.965Z,15.70
2023-03-18T13:54:36.716Z,17.02
2023-03-18T13:57:54.211Z,19.20
2023-03-18T14:00:40.625Z,19.67
2023-03-18T14:03:13.504Z,21.30
2023-03-18T14:05:42.702Z,20.63
2023-03-18T14:08:36.168Z,22.42
2023-03-18T14:11:19.916Z,24.73
2023-03-18T14:13:55.478Z,24.70
2023-03-18T14:16:30.313Z,23.92
2023-03-18T14:19:06.249Z,20.10
2023-03-18T14:21:34.446Z,25.02
2023-03-18T14:24:26.234Z,27.77
2023-03-18T14:27:05.349Z,24.75
2023-03-18T14:29:35.209Z,23.05
2023-03-18T14:32:08.561Z,25.73
2023-03-18T14:34:55.249Z,25.30
2023-03-18T14:37:30.944Z,22.05
2023-03-18T14:40:17.132Z,23.48
2023-03-18T14:43:10.580Z,24.35
2023-03-18T14:45:44.897Z,26.55
2023-03-18T14:48:19.115Z,28.25
2023-03-18T14:50:49.782Z,24.77
2023-03-18T14:53:40.342Z,26.10
2023-03-18T14:56:18.365Z,23.45
2023-03-18T14:58:47.742Z,30.38
2023-03-18T15:01:17.938Z,27.13
2023-03-18T15:03:49.942Z,25.00
2023-03-18T15:06:29.345Z,27.05
2023-03-18T15:09:08.486Z,29.67
2023-03-18T15:11:41.450Z,28.85
2023-03-18T15:14:30.151Z,32.75
2023-03-18T15:17:01.102Z,27.48
2023-03-18T15:19:29.521Z,36.72
2023-03-18T15:22:03.618Z,31.38
2023-03-18T15:24:31.029Z,34.22
2023-03-18T15:26:59.350Z,37.38
2023-03-18T15:29:33.963Z,34.35
2023-03-18T15:32:20.278Z,30.60
2023-03-18T15:35:06.568Z,39.13
2023-03-18T15:37:40.764Z,44.33
2023-03-18T15:40:32.259Z,40.10
2023-03-18T15:43:18.198Z,37.85
2023-03-18T15:45:52.156Z,41.05
2023-03-18T15:48:27.170Z,46.92
2023-03-18T15:50:58.432Z,47.30
2023-03-18T15:53:34.663Z,40.38
2023-03-18T15:56:19.932Z,41.10
2023-03-18T15:59:06.474Z,39.50
2023-03-18T16:01:35.413Z,37.90
2023-03-18T16:04:06.694Z,40.45
2023-03-18T16:06:35.113Z,40.65
2023-03-18T16:09:14.002Z,42.88
2023-03-18T16:11:41.459Z,42.75
2023-03-18T16:14:15.082Z,48.55
2023-03-18T16:16:42.655Z,47.00
2023-03-18T16:19:25.155Z,46.88
2023-03-18T16:21:53.125Z,42.65
2023-03-18T16:24:20.488Z,40.72
2023-03-18T16:26:47.876Z,42.92
2023-03-18T16:29:16.935Z,40.45
2023-03-18T16:31:44.957Z,43.85
2023-03-18T16:34:17.189Z,44.63
2023-03-18T16:36:44.507Z,39.78
2023-03-18T16:39:27.476Z,39.90
2023-03-18T16:41:54.940Z,41.63
2023-03-18T16:44:23.742Z,42.10
2023-03-18T16:46:54.635Z,37.90
2023-03-18T16:49:26.220Z,44.00
2023-03-18T16:51:53.966Z,38.95
2023-03-18T16:54:42.971Z,39.35
2023-03-18T16:57:17.606Z,33.28
2023-03-18T16:59:49.986Z,43.25
2023-03-18T17:02:31.371Z,31.05
2023-03-18T17:04:59.039Z,35.38
2023-03-18T17:07:26.796Z,37.47
2023-03-18T17:09:53.760Z,30.75
2023-03-18T17:12:22.033Z,34.72
2023-03-18T17:14:54.829Z,34.63
2023-03-18T17:17:21.781Z,36.20
2023-03-18T17:19:49.001Z,32.65
2023-03-18T17:22:25.880Z,29.98
2023-03-18T17:24:53.007Z,31.25
2023-03-18T17:27:26.868Z,33.42
2023-03-18T17:29:53.977Z,32.17
2023-03-18T17:32:22.358Z,31.00
2023-03-18T17:34:51.487Z,27.40
2023-03-18T17:37:19.296Z,34.90
2023-03-18T17:39:47.195Z,35.20
2023-03-18T17:42:28.186Z,26.70
2023-03-18T17:44:55.585Z,30.02
2023-03-18T17:47:22.903Z,26.13
2023-03-18T17:49:49.895Z,29.17
2023-03-18T17:52:22.214Z,28.70
2023-03-18T17:54:49.892Z,24.42
2023-03-18T17:57:18.313Z,27.38
2023-03-18T17:59:46.113Z,33.75
2023-03-18T18:02:21.327Z,28.27
2023-03-18T18:04:48.484Z,32.55
2023-03-18T18:07:21.903Z,34.53
2023-03-18T18:09:49.886Z,27.70
2023-03-18T18:12:22.107Z,33.30
2023-03-18T18:14:50.229Z,34.22
2023-03-18T18:17:18.344Z,33.33
2023-03-18T18:19:45.698Z,40.15
2023-03-18T18:22:22.771Z,40.50
2023-03-18T18:24:51.639Z,45.17
2023-03-18T18:27:19.487Z,48.22
2023-03-18T18:29:47.014Z,42.63
2023-03-18T18:32:15.638Z,39.78
2023-03-18T18:34:42.762Z,47.10
2023-03-18T18:37:09.968Z,48.10
2023-03-18T18:39:36.967Z,53.45
2023-03-18T18:42:04.562Z,52.80
2023-03-18T18:44:31.931Z,53.22
2023-03-18T18:46:58.998Z,54.13
2023-03-18T18:49:26.119Z,49.38
2023-03-18T18:51:55.107Z,51.03
2023-03-18T18:54:23.543Z,55.42
2023-03-18T18:56:51.374Z,58.97
2023-03-18T18:59:30.940Z,55.50
2023-03-18T19:01:58.603Z,63.22
2023-03-18T19:04:25.716Z,61.38
2023-03-18T19:06:53.880Z,63.33
2023-03-18T19:09:26.105Z,68.65
2023-03-18T19:11:56.252Z,73.18
2023-03-18T19:14:27.467Z,64.07
2023-03-18T19:16:58.395Z,65.05
2023-03-18T19:19:31.418Z,62.03
2023-03-18T19:21:58.998Z,65.93
2023-03-18T19:24:37.001Z,73.28
2023-03-18T19:27:07.237Z,64.28
2023-03-18T19:29:34.406Z,70.00
2023-03-18T19:32:02.035Z,76.93
2023-03-18T19:34:32.354Z,65.18
2023-03-18T19:37:02.877Z,79.60
2023-03-18T19:39:30.149Z,72.97
2023-03-18T19:41:57.194Z,83.53
2023-03-18T19:44:26.275Z,71.18
2023-03-18T19:46:56.672Z,81.43
2023-03-18T19:49:32.539Z,73.63
2023-03-18T19:52:00.207Z,81.50
2023-03-18T19:54:32.479Z,78.45
2023-03-18T19:57:22.725Z,80.43
2023-03-18T19:59:51.434Z,74.43
2023-03-18T20:02:25.187Z,76.70
2023-03-18T20:04:54.961Z,82.25
2023-03-18T20:07:23.950Z,77.63
2023-03-18T20:09:51.576Z,82.63
2023-03-18T20:12:25.926Z,90.68
2023-03-18T20:14:53.441Z,79.25
2023-03-18T20:17:37.590Z,85.03
2023-03-18T20:20:07.508Z,89.80
2023-03-18T20:22:40.875Z,88.05
2023-03-18T20:25:15.843Z,82.55
2023-03-18T20:27:43.000Z,86.63
2023-03-18T20:30:31.080Z,85.10
2023-03-18T20:32:58.496Z,91.75
2023-03-18T20:35:28.984Z,80.97
2023-03-18T20:37:58.872Z,85.57
2023-03-18T20:40:28.410Z,82.85
2023-03-18T20:42:55.959Z,86.93
2023-03-18T20:45:24.868Z,91.20
2023-03-18T20:47:51.875Z,99.70
2023-03-18T20:50:22.882Z,82.25
2023-03-18T20:52:50.804Z,88.50
2023-03-18T20:55:27.015Z,80.03
2023-03-18T20:57:54.537Z,95.07
2023-03-18T21:00:24.393Z,87.78
2023-03-18T21:02:54.382Z,89.95
2023-03-18T21:05:22.484Z,85.18
2023-03-18T21:07:49.592Z,92.72
2023-03-18T21:10:37.348Z,85.68
2023-03-18T21:13:26.052Z,86.75
2023-03-18T21:15:53.524Z,89.25
2023-03-18T21:18:20.750Z,87.78
2023-03-18T21:20:47.987Z,83.03
2023-03-18T21:23:26.917Z,91.13
2023-03-18T21:25:54.832Z,86.50
2023-03-18T21:28:23.833Z,93.70
2023-03-18T21:30:58.131Z,85.38
2023-03-18T21:33:27.985Z,86.20
2023-03-18T21:35:58.308Z,82.15
2023-03-18T21:38:35.094Z,81.28
2023-03-18T21:41:02.788Z,95.18
2023-03-18T21:43:35.858Z,88.55
2023-03-18T21:46:04.939Z,85.13
2023-03-18T21:48:32.348Z,92.82
2023-03-18T21:50:59.803Z,90.40
2023-03-18T21:53:28.250Z,94.90
2023-03-18T21:55:55.930Z,97.93
2023-03-18T21:58:25.808Z,101.70
2023-03-18T22:00:55.857Z,92.55
2023-03-18T22:03:24.900Z,99.57
2023-03-18T22:05:52.917Z,92.88
2023-03-18T22:08:21.278Z,91.60
2023-03-18T22:10:50.660Z,87.20
2023-03-18T22:13:26.162Z,84.35
2023-03-18T22:15:54.778Z,101.70
2023-03-18T22:18:22.753Z,102.25
2023-03-18T22:20:51.634Z,94.97
2023-03-18T22:23:24.394Z,96.65
2023-03-18T22:25:53.937Z,85.63
2023-03-18T22:28:22.272Z,93.63
2023-03-18T22:30:56.167Z,94.88
2023-03-18T22:33:28.096Z,99.18
2023-03-18T22:35:55.628Z,96.82
2023-03-18T22:38:24.465Z,99.13
2023-03-18T22:40:54.454Z,93.90
2023-03-18T22:43:28.335Z,90.40
2023-03-18T22:45:56.796Z,89.78
2023-03-18T22:48:23.955Z,85.55
2023-03-18T22:50:51.672Z,94.43
2023-03-18T22:53:23.093Z,88.57
2023-03-18T22:55:53.789Z,94.30
2023-03-18T22:58:27.181Z,96.90
2023-03-18T23:00:55.266Z,87.93
2023-03-18T23:03:26.667Z,99.22
2023-03-18T23:05:55.295Z,93.60
2023-03-18T23:08:22.882Z,92.10
2023-03-18T23:10:51.629Z,96.85
2023-03-18T23:13:39.379Z,99.95
2023-03-18T23:16:09.351Z,86.53
2023-03-18T23:18:37.606Z,89.20
2023-03-18T23:21:05.253Z,88.85
2023-03-18T23:23:32.385Z,86.15
2023-03-18T23:25:59.601Z,98.32
2023-03-18T23:28:26.617Z,85.28
2023-03-18T23:30:53.932Z,84.10
2023-03-18T23:33:20.938Z,82.63
2023-03-18T23:35:48.978Z,83.32
2023-03-18T23:38:16.310Z,85.70
2023-03-18T23:40:43.424Z,77.30
2023-03-18T23:43:10.509Z,79.20
2023-03-18T23:45:38.783Z,85.65
2023-03-18T23:48:06.853Z,77.60
2023-03-18T23:50:34.357Z,80.38
2023-03-18T23:53:01.906Z,85.65
2023-03-18T23:55:34.933Z,89.03
2023-03-18T23:58:03.866Z,74.03
